Wilson Commons Park, Washoe Valley, Nevada Weather observations

Data are for 10 minute period ending at time listed.
 Day   Time   Solar   Ave.   Ave.  Ave.  Vector  Max.   Baro.   Total    
  of    of     Rad.   Air    Rel.  Wind   Wind   Wind  Press.  Precip.   
Year   Day            Temp.  Hum.  Speed  Dir.   Gust                    
2026   (PST)  Kw/m2    F      %     mph   deg.    mph    mb.     in.     
-------------------------------------------------------------------------
 127    2:50   0.00   43.0    88    1.2    58     3.1   99999.0    0.00 
 127    3:00   0.00   42.6    93    1.1    58     3.5   99999.0    0.00 
 127    3:10   0.00   42.5    95    1.5    58     4.2   99999.0    0.00 
 127    3:20   0.00   43.1    95    0.8    58     2.4   99999.0    0.00 
 127    3:30   0.00   44.7    90    2.8    57     4.9   99999.0    0.00 
 127    3:40   0.00   44.5    88    2.1    61     5.3   99999.0    0.00 
 127    3:50   0.00   42.8    92    1.5    66     3.8   99999.0    0.00 
 127    4:00   0.00   43.3    94    1.2    64     4.2   99999.0    0.00 
 127    4:10   0.00   43.9    91    0.6    64     3.1   99999.0    0.00 
 127    4:20   0.00   42.7    91    0.1    63     1.3   99999.0    0.00 
 127    4:30   0.00   42.1    93    1.2    63     2.8   99999.0    0.00 
 127    4:40   0.00   42.2    95    1.2    63     3.8   99999.0    0.00 
 127    4:50   0.00   42.6    95    0.7    63     1.7   99999.0    0.00 
 127    5:00   0.00   41.6    94    0.8    44     2.1   99999.0    0.00 
 127    5:10   0.01   42.4    96    2.3    34     4.9   99999.0    0.00 
 127    5:20   0.01   42.9    95    0.4    34     2.8   99999.0    0.00 
 127    5:30   0.04   42.2    95    0.6    33     2.8   99999.0    0.00 
 127    5:40   0.08   43.9    95    0.8    33     3.1   99999.0    0.00 
 127    5:50   0.12   45.4    91    1.9    33     4.6   99999.0    0.00 
 127    6:00   0.15   47.5    88    1.5    33     3.5   99999.0    0.00 
 127    6:10   0.19   49.5    86    1.6    32     4.6   99999.0    0.00 
 127    6:20   0.22   51.5    85    0.5    34     3.1   99999.0    0.00 
 127    6:30   0.26   53.6    74    1.6    33     3.5   99999.0    0.00 
 127    6:40   0.29   55.4    64    1.1    33     2.8   99999.0    0.00 
 127    6:50   0.33   56.1    63    2.3    33     4.6   99999.0    0.00 
 127    7:00   0.37   57.7    60    1.0    33     2.4   99999.0    0.00 
 127    7:10   0.40   58.4    59    1.9    33     3.8   99999.0    0.00 
 127    7:20   0.43   58.8    61    2.5    36     5.6   99999.0    0.00 
 127    7:30   0.47   59.8    60    2.6    36     4.2   99999.0    0.00 
 127    7:40   0.50   60.9    56    3.0    36     5.3   99999.0    0.00 
 127    7:50   0.54   61.5    52    1.3    35     5.3   99999.0    0.00 
 127    8:00   0.58   61.7    53    3.9    36     7.8   99999.0    0.00 
 127    8:10   0.61   62.0    55    4.7    36     7.8   99999.0    0.00 
 127    8:20   0.64   61.8    54    3.9    34     5.3   99999.0    0.00 
 127    8:30   0.68   62.4    52    2.9    36     4.9   99999.0    0.00 
 127    8:40   0.71   63.2    52    3.2    34     6.0   99999.0    0.00 
 127    8:50   0.74   64.0    50    3.4    32     6.3   99999.0    0.00 
 127    9:00   0.77   64.4    51    3.6    35     5.6   99999.0    0.00 
 127    9:10   0.79   65.3    49    4.2    35     6.3   99999.0    0.00 
 127    9:20   0.82   66.4    46    5.0    34     9.9   99999.0    0.00 
 127    9:30   0.85   68.7    40    4.6    37    10.3   99999.0    0.00 
 127    9:40   0.87   67.5    47    4.7    47     9.9   99999.0    0.00 
 127    9:50   0.89   68.6    42    4.8    40     9.6   99999.0    0.00 
 127   10:00   0.92   71.0    35    8.1    40    14.6   99999.0    0.00 
 127   10:10   0.93   71.3    33    9.4    39    18.9   99999.0    0.00 
 127   10:20   0.95   71.0    33    9.3    38    17.1   99999.0    0.00 
 127   10:30   0.97   70.7    33    9.2    39    16.7   99999.0    0.00 
 127   10:40   0.98   71.0    32    8.4    39    16.0   99999.0    0.00 
 127   10:50   1.00   71.2    32    6.7    43    13.9   99999.0    0.00 
 127   11:00   1.01   71.5    31   11.2    41    16.4   99999.0    0.00 
 127   11:10   1.02   71.2    30   13.4    45    19.6   99999.0    0.00 
 127   11:20   1.03   70.8    30   13.9    42    21.7   99999.0    0.00 
 127   11:30   1.04   70.8    30   12.5    40    18.1   99999.0    0.00 
 127   11:40   1.04   71.1    31   13.9    41    19.9   99999.0    0.00 
 127   11:50   1.01   71.2    31   12.5    41    19.2   99999.0    0.00 
 127   12:00   1.05   71.5    30   11.9    39    18.1   99999.0    0.00 
 127   12:10   1.05   71.8    30   11.1    37    19.6   99999.0    0.00 
 127   12:20   1.05   72.0    28   14.1    40    22.1   99999.0    0.00 
 127   12:30   1.05   72.0    27   13.9    37    20.6   99999.0    0.00 
 127   12:40   1.05   71.8    27   14.0    34    20.6   99999.0    0.00 
 127   12:50   1.04   71.9    26   12.6    34    19.9   99999.0    0.00 
 127   13:00   1.03   72.1    26   12.7    33    20.6   99999.0    0.00 
 127   13:10   1.02   72.1    26   12.7    34    20.3   99999.0    0.00 
 127   13:20   1.01   72.5    26   12.9    34    20.3   99999.0    0.00 
 127   13:30   1.00   73.0    26   10.7    34    18.9   99999.0    0.00 
 127   13:40   0.98   72.9    26   10.8    34    18.5   99999.0    0.00 
 127   13:50   0.97   73.2    26    9.5    33    16.0   99999.0    0.00 
 127   14:00   0.95   73.5    26    9.5    33    16.0   99999.0    0.00 
 127   14:10   0.93   74.0    26    6.6    32    14.9   99999.0    0.00 
 127   14:20   0.91   74.0    26   12.8    32    19.2   99999.0    0.00 
 127   14:30   0.88   73.7    26    9.3    32    17.4   99999.0    0.00 
 127   14:40   0.86   73.5    25   12.1    32    22.8   99999.0    0.00 
 127   14:50   0.83   73.4    26   11.3    32    21.7   99999.0    0.00 
 127   15:00   0.81   73.2    25   12.7    32    20.6   99999.0    0.00 
 127   15:10   0.78   73.0    25   11.4    31    20.3   99999.0    0.00 
 127   15:20   0.75   73.2    25   10.2    32    17.8   99999.0    0.00 
 127   15:30   0.72   72.8    25   13.4    31    20.3   99999.0    0.00 
 127   15:40   0.69   72.5    25   12.8    31    21.4   99999.0    0.00 
 127   15:50   0.65   72.4    25   11.8    31    16.7   99999.0    0.00 
 127   16:00   0.62   72.3    25   11.3    31    21.7   99999.0    0.00 
 127   16:10   0.58   72.4    26    8.5    31    17.1   99999.0    0.00 
 127   16:20   0.55   72.0    25   10.8    31    18.1   99999.0    0.00 
 127   16:30   0.51   72.0    26    9.8    32    16.4   99999.0    0.00 
 127   16:40   0.48   71.9    26    9.7    31    21.0   99999.0    0.00 
 127   16:50   0.44   71.3    26   10.9    32    19.9   99999.0    0.00 
 127   17:00   0.40   71.1    26    9.4    31    17.8   99999.0    0.00 
 127   17:10   0.36   71.0    28    6.2    31    13.9   99999.0    0.00 
 127   17:20   0.32   70.6    28    9.3    31    15.6   99999.0    0.00 
 127   17:30   0.29   69.9    30    7.0    32    13.1   99999.0    0.00 
 127   17:40   0.25   69.8    30    7.5    31    12.8   99999.0    0.00 
 127   17:50   0.22   69.3    31    6.5    31    12.4   99999.0    0.00 
 127   18:00   0.07   67.8    34    7.4    31    14.6   99999.0    0.00 
 127   18:10   0.03   65.2    38    7.0    30    11.7   99999.0    0.00 
 127   18:20   0.02   63.9    40    6.7    30    11.0   99999.0    0.00 
 127   18:30   0.02   63.7    42    7.0    30    12.1   99999.0    0.00 
 127   18:40   0.02   62.7    42    6.1    30    10.6   99999.0    0.00 
 127   18:50   0.01   62.3    44    6.6    30    11.0   99999.0    0.00 
 127   19:00   0.01   62.0    44    6.3    30    10.6   99999.0    0.00 
 127   19:10   0.01   62.2    44    6.6    31     9.2   99999.0    0.00 
 127   19:20   0.00   61.6    46    9.2    31    14.9   99999.0    0.00 
 127   19:30   0.00   62.0    44    7.8    32    12.4   99999.0    0.00 
 127   19:40   0.00   61.4    46    8.2    32    13.5   99999.0    0.00 
 127   19:50   0.00   61.3    47   10.7    32    18.5   99999.0    0.00 
 127   20:00   0.00   61.8    46   14.3    33    22.4   99999.0    0.00 
 127   20:10   0.00   61.6    43   16.4    32    24.2   99999.0    0.00 
 127   20:20   0.00   61.9    39   17.8    33    27.8   99999.0    0.00 
 127   20:30   0.00   62.4    35   17.5    34    26.7   99999.0    0.00 
 127   20:40   0.00   62.3    32   11.2    36    22.1   99999.0    0.00 
 127   20:50   0.00   61.7    30    5.8    34    14.9   99999.0    0.00 
 127   21:00   0.00   61.6    25    4.0    35     9.9   99999.0    0.00 
 127   21:10   0.00   60.8    25    3.6    34     7.4   99999.0    0.00 
 127   21:20   0.00   60.1    26    3.2    32     4.6   99999.0    0.00 
 127   21:30   0.00   59.0    28    6.7    34    14.2   99999.0    0.00 
 127   21:40   0.00   60.4    29    8.6    34    17.1   99999.0    0.00 
 127   21:50   0.00   60.5    29    8.0    35    15.3   99999.0    0.00 
 127   22:00   0.00   60.3    28    9.0    36    18.5   99999.0    0.00 
 127   22:10   0.00   59.9    28    8.2    34    15.6   99999.0    0.00 
 127   22:20   0.00   59.8    28    8.3    35    17.4   99999.0    0.00 
 127   22:30   0.00   59.7    28    9.0    34    17.1   99999.0    0.00 
 127   22:40   0.00   59.5    28    6.8    34    12.8   99999.0    0.00 
 127   22:50   0.00   59.9    24    4.5    35     8.9   99999.0    0.00 
 127   23:00   0.00   56.7    33    3.8    33     7.4   99999.0    0.00 
 127   23:10   0.00   55.8    37    4.5    33     9.2   99999.0    0.00 
 127   23:20   0.00   52.0    54    2.9    34     4.9   99999.0    0.00 
 127   23:30   0.00   50.7    55    3.6    34     5.6   99999.0    0.00 
 127   23:40   0.00   50.6    50    3.7    34     5.3   99999.0    0.00 
 127   23:50   0.00   50.5    52    1.3    34     3.1   99999.0    0.00 
 128    0:00   0.00   47.8    50    1.1    34     3.1   99999.0    0.00 
 128    0:10   0.00   46.2    57    2.0    34     2.8   99999.0    0.00 
 128    0:20   0.00   45.8    52    2.0    34     5.3   99999.0    0.00 
 128    0:30   0.00   44.7    54    1.3    34     2.8   99999.0    0.00 
 128    0:40   0.00   46.2    54    2.8    34     3.8   99999.0    0.00 
 128    0:50   0.00   44.8    62    2.4    34     3.8   99999.0    0.00 
 128    1:00   0.00   43.2    63    2.1    34     3.5   99999.0    0.00 
 128    1:10   0.00   41.7    68    1.3    34     3.1   99999.0    0.00 
 128    1:20   0.00   42.8    65    3.1    34     4.2   99999.0    0.00 
 128    1:30   0.00   42.4    68    0.3    34     2.1   99999.0    0.00 
 128    1:40   0.00   41.5    68    0.9    34     2.8   99999.0    0.00 
 128    1:50   0.00   40.7    71    2.4    34     5.3   99999.0    0.00 
 128    2:00   0.00   41.4    62    2.8    34     4.9   99999.0    0.00 
 128    2:10   0.00   43.2    54    2.8    34     4.6   99999.0    0.00 
 128    2:20   0.00   43.3    59    2.3    34     4.2   99999.0    0.00 
 128    2:30   0.00   43.3    62    3.1    34     4.9   99999.0    0.00 
 128    2:40   0.00   43.4    60    2.8    34     3.8   99999.0    0.00 

Return to Wilson Commons Park graphs page.


Western Regional Climate Center,wrcc@dri.edu